Portada
METAR-TAF:

METAR-TAF

Aeroports :

Elkins-Randolph County Airport (Jennings Randolph Field)

Elkins, Virgínia de l'Oest, Estats Units d'Amèrica

latitud: 38-53-07N, longitud: 079-51-10W, altitud: 605 m

Observació

L'informe es va fer fa 54 minuts, a les 14:51 UTC
Vent calma
Temperatura -7°C
Humitat 57%
Pressió 1028 hPa
Cel clar

METAR: KEKN 131451Z AUTO 00000KT CLR M07/M14 A3035 RMK AO2 SLP314 I3000 T10721139 50007 $

Hora: 10:45 (15:45 UTC)

Pronòstic

L'informe es va fer fa 50 minuts, a les 14:55 UTC
Pronòstic vàlid del 13 a les 15 UTC al 14 a les 12 UTC
Vent 5 kt amb direcció variable
Visibilitat: 10 km
Escasses núvols a una alçada de 25000 ft
A partir de les 14 a les 0900 UTC
Vent kt del Nord
Visibilitat: 10 km
Cel ennuvolat a una alçada de 25000 ft

TAF: KEKN 131455Z 1315/1412 VRB05KT P6SM FEW250 FM140900 00000KT P6SM BKN250

Observacions i pronòstics meteorològics de més de 4000 aeroports (METAR i TAF).

Les estacions disponibles són els punts grocs i vermells al mapa.

Posi el ratolí al punt desitjat per veure el nom de l'estació.

Feu clic per veure les observacions i els pronòstics meteorològics.

Per canviar el mapa: feu clic els botons verds amb una creu de color negre per apropar; al botó verd amb un guió per allunyar la imatge; o en les fletxes verdes per a mapes adjacents.


METAR-TAF: